sensor_id;sensor_type;location;lat;lon;timestamp;pressure;altitude;pressure_sealevel;temperature;humidity
1776;BME280;885;42.626;23.200;2023-04-07T00:00:22;135252.44;;;1.18;73.70
1776;BME280;885;42.626;23.200;2023-04-07T00:02:49;134874.31;;;1.11;73.05
1776;BME280;885;42.626;23.200;2023-04-07T00:05:16;134495.25;;;1.04;73.71
1776;BME280;885;42.626;23.200;2023-04-07T00:07:44;134491.97;;;1.02;73.56
1776;BME280;885;42.626;23.200;2023-04-07T00:10:11;134501.91;;;1.07;73.75
1776;BME280;885;42.626;23.200;2023-04-07T00:12:37;134498.56;;;1.05;73.58
1776;BME280;885;42.626;23.200;2023-04-07T00:15:05;134494.16;;;1.03;72.98
1776;BME280;885;42.626;23.200;2023-04-07T00:17:32;134494.16;;;1.03;74.13
1776;BME280;885;42.626;23.200;2023-04-07T00:19:59;134496.38;;;1.04;73.60
1776;BME280;885;42.626;23.200;2023-04-07T00:22:25;134500.78;;;1.06;73.54
1776;BME280;885;42.626;23.200;2023-04-07T00:24:54;134496.38;;;1.04;73.25
1776;BME280;885;42.626;23.200;2023-04-07T00:27:20;134498.56;;;1.05;73.53
1776;BME280;885;42.626;23.200;2023-04-07T00:29:47;135245.75;;;1.15;74.14
1776;BME280;885;42.626;23.200;2023-04-07T00:32:14;134876.56;;;1.12;73.86
1776;BME280;885;42.626;23.200;2023-04-07T00:34:41;134116.34;;;0.96;73.92
1776;BME280;885;42.626;23.200;2023-04-07T00:37:07;134494.16;;;1.03;73.20
1776;BME280;885;42.626;23.200;2023-04-07T00:39:34;134118.50;;;0.97;73.85
1776;BME280;885;42.626;23.200;2023-04-07T00:42:03;134105.31;;;0.91;74.19
1776;BME280;885;42.626;23.200;2023-04-07T00:44:31;134107.53;;;0.92;74.07
1776;BME280;885;42.626;23.200;2023-04-07T00:46:58;134122.91;;;0.99;73.38
1776;BME280;885;42.626;23.200;2023-04-07T00:49:25;134110.81;;;0.94;74.01
1776;BME280;885;42.626;23.200;2023-04-07T00:51:53;134113.00;;;0.95;74.39
1776;BME280;885;42.626;23.200;2023-04-07T00:54:20;134111.94;;;0.94;74.05
1776;BME280;885;42.626;23.200;2023-04-07T00:56:47;134105.31;;;0.91;73.97
1776;BME280;885;42.626;23.200;2023-04-07T00:59:18;134124.03;;;1.00;73.07
1776;BME280;885;42.626;23.200;2023-04-07T01:01:52;134120.72;;;0.98;73.89
1776;BME280;885;42.626;23.200;2023-04-07T01:04:26;133756.13;;;0.97;73.03
1776;BME280;885;42.626;23.200;2023-04-07T01:07:00;134131.72;;;1.03;73.76
1776;BME280;885;42.626;23.200;2023-04-07T01:09:36;133764.91;;;1.01;72.53
1776;BME280;885;42.626;23.200;2023-04-07T01:12:06;133402.56;;;1.01;72.24
1776;BME280;885;42.626;23.200;2023-04-07T01:14:41;133394.91;;;0.98;72.30
1776;BME280;885;42.626;23.200;2023-04-07T01:17:09;132671.41;;;0.98;71.23
1776;BME280;885;42.626;23.200;2023-04-07T01:19:37;132674.66;;;1.00;71.06
1776;BME280;885;42.626;23.200;2023-04-07T01:22:09;132669.22;;;0.97;71.22
1776;BME280;885;42.626;23.200;2023-04-07T01:25:05;132301.53;;;0.95;71.93
1776;BME280;885;42.626;23.200;2023-04-07T01:27:42;132312.41;;;1.00;71.27
1776;BME280;885;42.626;23.200;2023-04-07T01:30:16;131942.63;;;0.96;72.19
1776;BME280;885;42.626;23.200;2023-04-07T01:32:46;131944.75;;;0.97;71.05
1776;BME280;885;42.626;23.200;2023-04-07T01:35:16;131936.13;;;0.93;71.20
1776;BME280;885;42.626;23.200;2023-04-07T01:37:44;131596.63;;;1.04;70.11
1776;BME280;885;42.626;23.200;2023-04-07T01:40:13;131227.94;;;1.01;69.89
1776;BME280;885;42.626;23.200;2023-04-07T01:42:42;131599.84;;;1.05;69.56
1776;BME280;885;42.626;23.200;2023-04-07T01:45:10;130498.41;;;0.98;69.91
1776;BME280;885;42.626;23.200;2023-04-07T01:47:39;130136.34;;;0.98;69.16
1776;BME280;885;42.626;23.200;2023-04-07T01:50:07;130504.78;;;1.01;68.65
1776;BME280;885;42.626;23.200;2023-04-07T01:52:34;130899.09;;;1.16;68.82
1776;BME280;885;42.626;23.200;2023-04-07T01:55:02;132371.00;;;1.27;69.56
1776;BME280;885;42.626;23.200;2023-04-07T01:57:29;132376.44;;;1.29;69.07
1776;BME280;885;42.626;23.200;2023-04-07T01:59:56;131647.34;;;1.27;68.49
1776;BME280;885;42.626;23.200;2023-04-07T02:02:23;131655.97;;;1.31;68.01
1776;BME280;885;42.626;23.200;2023-04-07T02:04:54;132024.81;;;1.34;69.78
1776;BME280;885;42.626;23.200;2023-04-07T02:07:26;132011.84;;;1.28;69.77
1776;BME280;885;42.626;23.200;2023-04-07T02:09:58;130918.41;;;1.25;67.96
1776;BME280;885;42.626;23.200;2023-04-07T02:12:27;130908.75;;;1.21;68.62
1776;BME280;885;42.626;23.200;2023-04-07T02:14:56;130170.44;;;1.14;68.50
1776;BME280;885;42.626;23.200;2023-04-07T02:17:25;129797.69;;;1.09;68.23
1776;BME280;885;42.626;23.200;2023-04-07T02:19:54;129421.81;;;1.03;67.90
1776;BME280;885;42.626;23.200;2023-04-07T02:22:22;129418.66;;;1.01;68.48
1776;BME280;885;42.626;23.200;2023-04-07T02:24:49;129050.34;;;0.98;68.55
1776;BME280;885;42.626;23.200;2023-04-07T02:27:16;128686.28;;;0.97;67.89
1776;BME280;885;42.626;23.200;2023-04-07T02:29:42;129067.25;;;1.06;68.08
1776;BME280;885;42.626;23.200;2023-04-07T02:32:09;128698.94;;;1.03;67.44
1776;BME280;885;42.626;23.200;2023-04-07T02:34:36;128705.28;;;1.06;67.41
1776;BME280;885;42.626;23.200;2023-04-07T02:37:04;128709.50;;;1.08;67.38
1776;BME280;885;42.626;23.200;2023-04-07T02:39:31;128329.66;;;1.00;67.80
1776;BME280;885;42.626;23.200;2023-04-07T02:41:57;128326.53;;;0.98;67.71
1776;BME280;885;42.626;23.200;2023-04-07T02:44:24;128337.00;;;1.03;67.22
1776;BME280;885;42.626;23.200;2023-04-07T02:46:51;128355.94;;;1.12;66.32
1776;BME280;885;42.626;23.200;2023-04-07T02:49:18;128342.28;;;1.06;67.55
1776;BME280;885;42.626;23.200;2023-04-07T02:51:44;128345.41;;;1.07;67.22
1776;BME280;885;42.626;23.200;2023-04-07T02:54:13;128345.41;;;1.07;67.79
1776;BME280;885;42.626;23.200;2023-04-07T02:56:40;128339.13;;;1.04;67.95
1776;BME280;885;42.626;23.200;2023-04-07T02:59:06;128334.94;;;1.02;68.29
1776;BME280;885;42.626;23.200;2023-04-07T03:01:33;127983.50;;;1.07;67.73
1776;BME280;885;42.626;23.200;2023-04-07T03:04:00;128707.38;;;1.07;68.74
1776;BME280;885;42.626;23.200;2023-04-07T03:06:27;128345.41;;;1.07;67.21
1776;BME280;885;42.626;23.200;2023-04-07T03:08:54;128345.41;;;1.07;67.25
1776;BME280;885;42.626;23.200;2023-04-07T03:11:22;127988.75;;;1.10;67.47
1776;BME280;885;42.626;23.200;2023-04-07T03:13:49;128362.22;;;1.15;67.26
1776;BME280;885;42.626;23.200;2023-04-07T03:16:16;127986.66;;;1.09;67.44
1776;BME280;885;42.626;23.200;2023-04-07T03:18:42;128351.75;;;1.10;68.56
1776;BME280;885;42.626;23.200;2023-04-07T03:21:09;127990.84;;;1.11;67.64
1776;BME280;885;42.626;23.200;2023-04-07T03:23:36;128362.22;;;1.15;67.44
1776;BME280;885;42.626;23.200;2023-04-07T03:26:03;128366.47;;;1.17;67.50
1776;BME280;885;42.626;23.200;2023-04-07T03:28:31;128362.22;;;1.15;67.37
1776;BME280;885;42.626;23.200;2023-04-07T03:30:58;127995.03;;;1.13;68.03
1776;BME280;885;42.626;23.200;2023-04-07T03:33:24;127996.06;;;1.13;67.52
1776;BME280;885;42.626;23.200;2023-04-07T03:35:51;127995.03;;;1.13;67.26
1776;BME280;885;42.626;23.200;2023-04-07T03:38:18;127617.41;;;1.05;68.08
1776;BME280;885;42.626;23.200;2023-04-07T03:40:45;127975.13;;;1.03;68.61
1776;BME280;885;42.626;23.200;2023-04-07T03:43:12;127598.66;;;0.96;69.09
1776;BME280;885;42.626;23.200;2023-04-07T03:45:41;127962.53;;;0.97;68.70
1776;BME280;885;42.626;23.200;2023-04-07T03:48:08;127588.19;;;0.91;69.20
1776;BME280;885;42.626;23.200;2023-04-07T03:50:36;127586.06;;;0.90;69.17
1776;BME280;885;42.626;23.200;2023-04-07T03:53:03;127953.09;;;0.93;69.75
1776;BME280;885;42.626;23.200;2023-04-07T03:55:29;127584.00;;;0.89;69.04
1776;BME280;885;42.626;23.200;2023-04-07T03:57:56;127574.59;;;0.85;69.23
1776;BME280;885;42.626;23.200;2023-04-07T04:00:23;127939.47;;;0.86;69.89
1776;BME280;885;42.626;23.200;2023-04-07T04:02:51;127947.84;;;0.90;69.25
1776;BME280;885;42.626;23.200;2023-04-07T04:05:18;128324.41;;;0.97;69.35
1776;BME280;885;42.626;23.200;2023-04-07T04:07:45;127946.84;;;0.90;69.04
1776;BME280;885;42.626;23.200;2023-04-07T04:10:11;127957.28;;;0.95;69.11
1776;BME280;885;42.626;23.200;2023-04-07T04:12:39;127962.53;;;0.97;68.95
1776;BME280;885;42.626;23.200;2023-04-07T04:15:06;128331.75;;;1.01;68.88
1776;BME280;885;42.626;23.200;2023-04-07T04:17:33;128333.88;;;1.02;69.20
1776;BME280;885;42.626;23.200;2023-04-07T04:20:01;127962.53;;;0.97;68.94
1776;BME280;885;42.626;23.200;2023-04-07T04:22:28;127960.47;;;0.96;68.63
1776;BME280;885;42.626;23.200;2023-04-07T04:24:55;127601.75;;;0.98;68.36
1776;BME280;885;42.626;23.200;2023-04-07T04:27:22;127968.84;;;1.00;68.92
1776;BME280;885;42.626;23.200;2023-04-07T04:29:49;127973.03;;;1.02;68.84
1776;BME280;885;42.626;23.200;2023-04-07T04:32:16;128722.13;;;1.14;68.30
1776;BME280;885;42.626;23.200;2023-04-07T04:34:43;128719.00;;;1.13;69.18
1776;BME280;885;42.626;23.200;2023-04-07T04:37:11;127978.28;;;1.05;68.67
1776;BME280;885;42.626;23.200;2023-04-07T04:39:38;127985.59;;;1.08;67.91
1776;BME280;885;42.626;23.200;2023-04-07T04:42:04;128726.34;;;1.16;68.95
1776;BME280;885;42.626;23.200;2023-04-07T04:44:31;129108.47;;;1.26;68.62
1776;BME280;885;42.626;23.200;2023-04-07T04:46:58;128739.00;;;1.22;68.50
1776;BME280;885;42.626;23.200;2023-04-07T04:49:25;128734.78;;;1.20;67.97
1776;BME280;885;42.626;23.200;2023-04-07T04:51:52;129114.84;;;1.29;67.83
1776;BME280;885;42.626;23.200;2023-04-07T04:54:20;128019.13;;;1.24;67.09
1776;BME280;885;42.626;23.200;2023-04-07T04:56:47;129135.97;;;1.39;67.98
1776;BME280;885;42.626;23.200;2023-04-07T04:59:13;128766.44;;;1.35;67.07
1776;BME280;885;42.626;23.200;2023-04-07T05:01:40;128772.72;;;1.38;67.17
1776;BME280;885;42.626;23.200;2023-04-07T05:04:07;128775.91;;;1.40;66.98
1776;BME280;885;42.626;23.200;2023-04-07T05:06:34;129151.84;;;1.46;67.41
1776;BME280;885;42.626;23.200;2023-04-07T05:09:01;128781.19;;;1.42;67.07
1776;BME280;885;42.626;23.200;2023-04-07T05:11:29;129162.41;;;1.51;66.54
1776;BME280;885;42.626;23.200;2023-04-07T05:13:56;128798.06;;;1.50;65.90
1776;BME280;885;42.626;23.200;2023-04-07T05:16:22;129927.47;;;1.71;67.59
1776;BME280;885;42.626;23.200;2023-04-07T05:18:49;128814.94;;;1.58;66.11
1776;BME280;885;42.626;23.200;2023-04-07T05:21:16;129554.38;;;1.66;66.95
1776;BME280;885;42.626;23.200;2023-04-07T05:23:44;128821.22;;;1.61;66.28
1776;BME280;885;42.626;23.200;2023-04-07T05:26:11;128817.03;;;1.59;66.24
1776;BME280;885;42.626;23.200;2023-04-07T05:28:39;129562.91;;;1.70;66.38
1776;BME280;885;42.626;23.200;2023-04-07T05:31:06;129571.41;;;1.74;66.13
1776;BME280;885;42.626;23.200;2023-04-07T05:33:32;129206.84;;;1.73;65.68
1776;BME280;885;42.626;23.200;2023-04-07T05:35:59;129207.91;;;1.73;65.38
1776;BME280;885;42.626;23.200;2023-04-07T05:38:26;129958.31;;;1.85;66.58
1776;BME280;885;42.626;23.200;2023-04-07T05:40:53;129225.88;;;1.82;64.20
1776;BME280;885;42.626;23.200;2023-04-07T05:43:20;128857.09;;;1.79;64.99
1776;BME280;885;42.626;23.200;2023-04-07T05:45:48;131826.50;;;2.11;67.11
1776;BME280;885;42.626;23.200;2023-04-07T05:48:14;130368.88;;;2.08;64.15
1776;BME280;885;42.626;23.200;2023-04-07T05:50:41;128886.63;;;1.93;63.19
1776;BME280;885;42.626;23.200;2023-04-07T05:53:08;129256.56;;;1.96;63.79
1776;BME280;885;42.626;23.200;2023-04-07T05:55:35;129636.09;;;2.04;64.82
1776;BME280;885;42.626;23.200;2023-04-07T05:58:02;128899.31;;;1.99;63.66
1776;BME280;885;42.626;23.200;2023-04-07T06:00:29;127785.72;;;1.86;62.85
1776;BME280;885;42.626;23.200;2023-04-07T06:02:57;129671.13;;;2.21;63.81
1776;BME280;885;42.626;23.200;2023-04-07T06:05:24;129704.03;;;2.36;61.91
1776;BME280;885;42.626;23.200;2023-04-07T06:07:51;128585.19;;;2.22;61.23
1776;BME280;885;42.626;23.200;2023-04-07T06:10:18;128959.44;;;2.27;62.33
1776;BME280;885;42.626;23.200;2023-04-07T06:12:45;129714.63;;;2.41;62.56
1776;BME280;885;42.626;23.200;2023-04-07T06:15:12;128981.59;;;2.38;62.38
1776;BME280;885;42.626;23.200;2023-04-07T06:17:39;128596.75;;;2.27;62.38
1776;BME280;885;42.626;23.200;2023-04-07T06:20:08;129738.00;;;2.53;62.31
1776;BME280;885;42.626;23.200;2023-04-07T06:22:35;130140.34;;;2.71;61.89
1776;BME280;885;42.626;23.200;2023-04-07T06:25:01;130519.44;;;2.79;60.43
1776;BME280;885;42.626;23.200;2023-04-07T06:27:28;130179.72;;;2.90;59.65
1776;BME280;885;42.626;23.200;2023-04-07T06:29:55;133243.28;;;3.62;59.25
1776;BME280;885;42.626;23.200;2023-04-07T06:32:22;129860.09;;;3.10;58.70
1776;BME280;885;42.626;23.200;2023-04-07T06:34:49;130208.50;;;3.03;59.88
1776;BME280;885;42.626;23.200;2023-04-07T06:37:17;130631.59;;;3.32;58.33
1776;BME280;885;42.626;23.200;2023-04-07T06:39:44;127208.72;;;2.58;59.82
1776;BME280;885;42.626;23.200;2023-04-07T06:42:11;126418.19;;;2.26;61.00
1776;BME280;885;42.626;23.200;2023-04-07T06:44:38;127927.94;;;2.55;61.98
1776;BME280;885;42.626;23.200;2023-04-07T06:47:05;129831.44;;;2.97;61.78
1776;BME280;885;42.626;23.200;2023-04-07T06:49:36;128329.56;;;2.73;60.83
1776;BME280;885;42.626;23.200;2023-04-07T06:52:03;128705.13;;;2.79;61.08
1776;BME280;885;42.626;23.200;2023-04-07T06:54:32;128324.31;;;2.71;60.97
1776;BME280;885;42.626;23.200;2023-04-07T06:56:58;130210.63;;;3.04;61.91
1776;BME280;885;42.626;23.200;2023-04-07T06:59:25;132133.38;;;3.54;60.45
1776;BME280;885;42.626;23.200;2023-04-07T07:01:52;132576.25;;;3.90;57.55
1776;BME280;885;42.626;23.200;2023-04-07T07:04:19;130287.34;;;3.41;59.65
1776;BME280;885;42.626;23.200;2023-04-07T07:25:06;127626.75;;;2.84;60.31
1776;BME280;885;42.626;23.200;2023-04-07T07:27:33;128770.41;;;3.10;60.17
1776;BME280;885;42.626;23.200;2023-04-07T07:29:59;131002.63;;;3.35;61.69
1776;BME280;885;42.626;23.200;2023-04-07T07:32:26;129898.38;;;3.29;60.36
1776;BME280;885;42.626;23.200;2023-04-07T07:34:53;129530.75;;;3.27;61.19
1776;BME280;885;42.626;23.200;2023-04-07T07:37:20;130295.84;;;3.45;60.29
1776;BME280;885;42.626;23.200;2023-04-07T07:50:51;134989.28;;;4.95;57.39
1776;BME280;885;42.626;23.200;2023-04-07T07:53:18;134286.03;;;5.07;55.20
1776;BME280;885;42.626;23.200;2023-04-07T07:55:45;133898.22;;;4.96;55.77
1776;BME280;885;42.626;23.200;2023-04-07T07:58:12;131613.44;;;4.51;56.06
1776;BME280;885;42.626;23.200;2023-04-07T08:00:38;133126.31;;;4.76;57.60
1776;BME280;885;42.626;23.200;2023-04-07T08:03:05;134325.56;;;5.25;55.73
1776;BME280;885;42.626;23.200;2023-04-07T08:05:32;136605.25;;;5.65;56.23
1776;BME280;885;42.626;23.200;2023-04-07T08:08:00;133616.44;;;5.34;55.05
1776;BME280;885;42.626;23.200;2023-04-07T08:10:27;134379.34;;;5.49;54.48
1776;BME280;885;42.626;23.200;2023-04-07T08:12:54;135128.44;;;5.58;55.92
1776;BME280;885;42.626;23.200;2023-04-07T08:15:21;134763.22;;;5.58;56.13
1776;BME280;885;42.626;23.200;2023-04-07T08:17:47;130956.63;;;4.84;56.86
1776;BME280;885;42.626;23.200;2023-04-07T08:20:14;130193.84;;;4.68;56.19
1776;BME280;885;42.626;23.200;2023-04-07T08:22:41;127900.25;;;4.16;57.74
1776;BME280;885;42.626;23.200;2023-04-07T08:25:09;130130.03;;;4.38;60.18
1776;BME280;885;42.626;23.200;2023-04-07T08:27:36;132027.38;;;4.74;59.31
1776;BME280;885;42.626;23.200;2023-04-07T08:30:04;131327.53;;;4.88;57.72
1776;BME280;885;42.626;23.200;2023-04-07T08:32:35;131719.97;;;5.01;56.42
1776;BME280;885;42.626;23.200;2023-04-07T08:35:02;132106.19;;;5.11;57.46
1776;BME280;885;42.626;23.200;2023-04-07T08:37:29;131357.56;;;5.02;56.76
1776;BME280;885;42.626;23.200;2023-04-07T08:39:56;131743.66;;;5.12;56.85
1776;BME280;885;42.626;23.200;2023-04-07T08:42:27;130971.63;;;4.92;58.39
1776;BME280;885;42.626;23.200;2023-04-07T09:17:08;131307.81;;;6.50;54.44
1776;BME280;885;42.626;23.200;2023-04-07T09:19:35;131019.31;;;6.86;50.47
1776;BME280;885;42.626;23.200;2023-04-07T09:22:02;129114.75;;;6.49;52.49
1776;BME280;885;42.626;23.200;2023-04-07T09:24:29;130222.28;;;6.55;53.33
1776;BME280;885;42.626;23.200;2023-04-07T09:27:13;127591.63;;;6.19;53.26
1776;BME280;885;42.626;23.200;2023-04-07T09:29:42;128339.34;;;6.27;53.50
1776;BME280;885;42.626;23.200;2023-04-07T09:32:11;126849.44;;;6.13;52.84
1776;BME280;885;42.626;23.200;2023-04-07T09:34:39;129097.88;;;6.41;54.42
1776;BME280;885;42.626;23.200;2023-04-07T09:37:07;127252.66;;;6.31;52.52
1776;BME280;885;42.626;23.200;2023-04-07T09:39:47;128005.63;;;6.43;53.66
1776;BME280;885;42.626;23.200;2023-04-07T09:42:15;127289.97;;;6.50;51.53
1776;BME280;885;42.626;23.200;2023-04-07T09:44:43;127294.13;;;6.52;52.81
1776;BME280;885;42.626;23.200;2023-04-07T09:47:11;125425.16;;;6.30;51.83
1776;BME280;885;42.626;23.200;2023-04-07T09:49:48;126525.88;;;6.33;53.84
1776;BME280;885;42.626;23.200;2023-04-07T09:52:16;126911.47;;;6.43;54.14
1776;BME280;885;42.626;23.200;2023-04-07T09:54:45;127674.84;;;6.59;53.64
1776;BME280;885;42.626;23.200;2023-04-07T09:57:12;129565.53;;;6.90;54.28
1776;BME280;885;42.626;23.200;2023-04-07T09:59:40;131882.88;;;7.48;52.89
1776;BME280;885;42.626;23.200;2023-04-07T10:02:08;130447.53;;;7.61;49.92
1776;BME280;885;42.626;23.200;2023-04-07T10:04:37;128896.50;;;7.19;52.04
1776;BME280;885;42.626;23.200;2023-04-07T10:07:04;129636.28;;;7.23;52.33
1776;BME280;885;42.626;23.200;2023-04-07T10:09:31;125860.66;;;6.65;53.29
1776;BME280;885;42.626;23.200;2023-04-07T10:11:58;126243.22;;;6.73;52.88
1776;BME280;885;42.626;23.200;2023-04-07T10:14:26;125111.31;;;6.55;53.30
1776;BME280;885;42.626;23.200;2023-04-07T10:16:53;123242.00;;;6.32;53.28
1776;BME280;885;42.626;23.200;2023-04-07T10:19:20;124738.28;;;6.51;53.36
1776;BME280;885;42.626;23.200;2023-04-07T10:21:51;124739.28;;;6.52;53.38
1776;BME280;885;42.626;23.200;2023-04-07T10:24:29;124753.50;;;6.59;54.08
1776;BME280;885;42.626;23.200;2023-04-07T10:27:02;125869.91;;;6.69;54.14
1776;BME280;885;42.626;23.200;2023-04-07T10:29:34;122901.38;;;6.45;52.91
1776;BME280;885;42.626;23.200;2023-04-07T10:32:03;122520.78;;;6.36;52.89
1776;BME280;885;42.626;23.200;2023-04-07T10:34:54;122862.38;;;6.25;54.74
1776;BME280;885;42.626;23.200;2023-04-07T10:37:24;124011.66;;;6.53;54.67
1776;BME280;885;42.626;23.200;2023-04-07T10:42:52;124374.41;;;6.52;54.08
1776;BME280;885;42.626;23.200;2023-04-07T10:45:55;121384.72;;;6.15;53.87
1776;BME280;885;42.626;23.200;2023-04-07T10:48:24;121001.69;;;6.05;54.05
1776;BME280;885;42.626;23.200;2023-04-07T10:51:15;123250.97;;;6.37;55.12
1776;BME280;885;42.626;23.200;2023-04-07T10:57:09;125532.44;;;6.83;54.24
1776;BME280;885;42.626;23.200;2023-04-07T10:59:38;124789.06;;;6.76;54.23
1776;BME280;885;42.626;23.200;2023-04-07T11:02:30;122165.13;;;6.41;54.40
1776;BME280;885;42.626;23.200;2023-04-07T11:04:58;120669.84;;;6.22;53.91
1776;BME280;885;42.626;23.200;2023-04-07T11:07:48;119928.59;;;6.15;54.42
1776;BME280;885;42.626;23.200;2023-04-07T11:10:15;121023.34;;;6.16;55.21
1776;BME280;885;42.626;23.200;2023-04-07T11:12:57;121385.72;;;6.15;56.10
1776;BME280;885;42.626;23.200;2023-04-07T11:15:25;121388.69;;;6.17;56.87
1776;BME280;885;42.626;23.200;2023-04-07T11:18:12;122152.25;;;6.34;55.59
1776;BME280;885;42.626;23.200;2023-04-07T11:20:50;122165.13;;;6.41;54.98
1776;BME280;885;42.626;23.200;2023-04-07T11:23:20;121813.47;;;6.48;55.48
1776;BME280;885;42.626;23.200;2023-04-07T11:25:49;119949.06;;;6.26;53.93
1776;BME280;885;42.626;23.200;2023-04-07T11:28:17;120282.03;;;6.10;55.91
1776;BME280;885;42.626;23.200;2023-04-07T11:30:46;122891.34;;;6.39;56.72
1776;BME280;885;42.626;23.200;2023-04-07T11:33:15;122184.03;;;6.51;54.66
1776;BME280;885;42.626;23.200;2023-04-07T11:35:47;120705.16;;;6.40;54.06
1776;BME280;885;42.626;23.200;2023-04-07T11:38:14;122561.66;;;6.57;55.69
1776;BME280;885;42.626;23.200;2023-04-07T11:40:42;123316.22;;;6.70;56.09
1776;BME280;885;42.626;23.200;2023-04-07T11:43:20;123311.19;;;6.67;55.74
1776;BME280;885;42.626;23.200;2023-04-07T11:46:04;119190.50;;;6.10;54.68
1776;BME280;885;42.626;23.200;2023-04-07T11:48:33;121441.00;;;6.43;55.41
1776;BME280;885;42.626;23.200;2023-04-07T11:51:00;123691.13;;;6.75;55.33
1776;BME280;885;42.626;23.200;2023-04-07T11:53:28;123360.34;;;6.92;53.91
1776;BME280;885;42.626;23.200;2023-04-07T11:56:03;124863.22;;;7.13;54.92
1776;BME280;885;42.626;23.200;2023-04-07T11:58:33;125632.59;;;7.32;54.22
1776;BME280;885;42.626;23.200;2023-04-07T12:01:02;123416.56;;;7.20;53.27
1776;BME280;885;42.626;23.200;2023-04-07T12:03:31;123436.63;;;7.30;52.12
1776;BME280;885;42.626;23.200;2023-04-07T12:05:58;123802.88;;;7.31;53.06
1776;BME280;885;42.626;23.200;2023-04-07T12:08:39;124935.34;;;7.49;53.82
1776;BME280;885;42.626;23.200;2023-04-07T12:11:07;126077.00;;;7.71;52.75
1776;BME280;885;42.626;23.200;2023-04-07T12:13:36;126098.53;;;7.81;51.78
1776;BME280;885;42.626;23.200;2023-04-07T12:16:03;125733.84;;;7.82;52.54
1776;BME280;885;42.626;23.200;2023-04-07T12:18:30;123487.84;;;7.56;50.75
1776;BME280;885;42.626;23.200;2023-04-07T12:20:57;120834.75;;;7.06;51.99
1776;BME280;885;42.626;23.200;2023-04-07T12:23:24;122327.19;;;7.23;53.33
1776;BME280;885;42.626;23.200;2023-04-07T12:25:51;121598.09;;;7.23;52.12
1776;BME280;885;42.626;23.200;2023-04-07T12:28:18;120100.22;;;7.04;52.24
1776;BME280;885;42.626;23.200;2023-04-07T12:30:46;121607.00;;;7.28;52.15
1776;BME280;885;42.626;23.200;2023-04-07T12:33:13;120863.22;;;7.21;52.50
1776;BME280;885;42.626;23.200;2023-04-07T12:35:40;120143.19;;;7.26;50.77
1776;BME280;885;42.626;23.200;2023-04-07T12:38:07;122396.81;;;7.58;52.00
1776;BME280;885;42.626;23.200;2023-04-07T12:40:34;122814.03;;;7.84;50.73
1776;BME280;885;42.626;23.200;2023-04-07T12:43:02;123191.53;;;7.90;50.82
1776;BME280;885;42.626;23.200;2023-04-07T12:45:29;125458.94;;;8.27;51.06
1776;BME280;885;42.626;23.200;2023-04-07T12:47:58;126264.81;;;8.63;49.54
1776;BME280;885;42.626;23.200;2023-04-07T12:50:24;128141.38;;;8.85;51.96
1776;BME280;885;42.626;23.200;2023-04-07T12:52:51;127795.59;;;8.95;50.09
1776;BME280;885;42.626;23.200;2023-04-07T12:55:19;122867.91;;;8.12;49.34
1776;BME280;885;42.626;23.200;2023-04-07T12:57:45;115349.81;;;6.98;51.19
1776;BME280;885;42.626;23.200;2023-04-07T13:00:13;117969.69;;;7.34;52.11
1776;BME280;885;42.626;23.200;2023-04-07T13:02:40;120615.78;;;7.81;51.09
1776;BME280;885;42.626;23.200;2023-04-07T13:05:09;122130.72;;;8.09;50.70
1776;BME280;885;42.626;23.200;2023-04-07T13:07:36;122508.28;;;8.15;51.11
1776;BME280;885;42.626;23.200;2023-04-07T13:10:03;120255.44;;;7.84;50.20
1776;BME280;885;42.626;23.200;2023-04-07T13:12:32;119120.16;;;7.63;51.68
1776;BME280;885;42.626;23.200;2023-04-07T13:14:59;121716.72;;;7.84;53.40
1776;BME280;885;42.626;23.200;2023-04-07T13:17:26;122497.28;;;8.09;52.02
1776;BME280;885;42.626;23.200;2023-04-07T13:19:53;121389.81;;;8.03;51.84
1776;BME280;885;42.626;23.200;2023-04-07T13:22:21;122137.69;;;8.12;52.10
1776;BME280;885;42.626;23.200;2023-04-07T13:24:48;119926.19;;;8.02;49.83
1776;BME280;885;42.626;23.200;2023-04-07T13:27:15;118420.91;;;7.79;50.27
1776;BME280;885;42.626;23.200;2023-04-07T13:29:42;120272.03;;;7.92;52.03
1776;BME280;885;42.626;23.200;2023-04-07T13:32:10;119145.31;;;7.76;52.14
1776;BME280;885;42.626;23.200;2023-04-07T13:34:39;118386.34;;;7.61;52.59
1776;BME280;885;42.626;23.200;2023-04-07T13:37:06;120231.03;;;7.71;54.04
1776;BME280;885;42.626;23.200;2023-04-07T13:39:34;119864.88;;;7.71;53.63
1776;BME280;885;42.626;23.200;2023-04-07T13:42:01;120245.69;;;7.79;53.62
1776;BME280;885;42.626;23.200;2023-04-07T13:44:29;120990.94;;;7.86;53.58
1776;BME280;885;42.626;23.200;2023-04-07T13:46:56;120281.81;;;7.97;52.13
1776;BME280;885;42.626;23.200;2023-04-07T13:49:23;121374.03;;;7.95;54.58
1776;BME280;885;42.626;23.200;2023-04-07T13:51:49;123919.69;;;7.89;59.62
1776;BME280;885;42.626;23.200;2023-04-07T13:54:16;124262.06;;;7.77;60.10
1776;BME280;885;42.626;23.200;2023-04-07T13:56:44;124241.88;;;7.67;59.81
1776;BME280;885;42.626;23.200;2023-04-07T13:59:13;124975.00;;;7.68;60.92
1776;BME280;885;42.626;23.200;2023-04-07T14:01:40;124578.00;;;7.53;60.93
1776;BME280;885;42.626;23.200;2023-04-07T14:04:07;124941.47;;;7.52;61.62
1776;BME280;885;42.626;23.200;2023-04-07T14:06:34;124531.41;;;7.30;62.48
1776;BME280;885;42.626;23.200;2023-04-07T14:09:01;124535.47;;;7.32;62.55
1776;BME280;885;42.626;23.200;2023-04-07T14:11:32;124138.88;;;7.16;63.31
1776;BME280;885;42.626;23.200;2023-04-07T14:14:03;125246.81;;;7.22;63.52
1776;BME280;885;42.626;23.200;2023-04-07T14:16:30;123750.50;;;7.04;62.67
1776;BME280;885;42.626;23.200;2023-04-07T14:18:57;124127.72;;;7.10;62.53
1776;BME280;885;42.626;23.200;2023-04-07T14:21:24;125250.91;;;7.24;63.24
1776;BME280;885;42.626;23.200;2023-04-07T14:23:51;126004.22;;;7.35;63.07
1776;BME280;885;42.626;23.200;2023-04-07T14:26:18;125637.72;;;7.35;62.88
1776;BME280;885;42.626;23.200;2023-04-07T14:28:45;126362.50;;;7.32;64.64
1776;BME280;885;42.626;23.200;2023-04-07T14:31:14;126739.38;;;7.37;64.10
1776;BME280;885;42.626;23.200;2023-04-07T14:33:42;126750.69;;;7.43;63.24
1776;BME280;885;42.626;23.200;2023-04-07T14:36:09;127485.03;;;7.44;64.51